sensor_id;sensor_type;location;lat;lon;timestamp;pressure;altitude;pressure_sealevel;temperature;humidity
3812;BME280;1921;49.368;11.068;2023-01-28T00:02:02;98212.47;;;0.80;87.58
3812;BME280;1921;49.368;11.068;2023-01-28T00:04:28;98205.19;;;0.87;87.56
3812;BME280;1921;49.368;11.068;2023-01-28T00:06:54;98202.41;;;0.64;87.93
3812;BME280;1921;49.368;11.068;2023-01-28T00:09:19;98218.13;;;0.85;87.80
3812;BME280;1921;49.368;11.068;2023-01-28T00:11:45;98195.69;;;0.49;89.61
3812;BME280;1921;49.368;11.068;2023-01-28T00:14:11;98232.72;;;0.85;89.06
3812;BME280;1921;49.368;11.068;2023-01-28T00:16:37;98209.69;;;0.70;89.58
3812;BME280;1921;49.368;11.068;2023-01-28T00:19:03;98203.09;;;0.53;89.11
3812;BME280;1921;49.368;11.068;2023-01-28T00:21:28;98205.69;;;0.66;90.31
3812;BME280;1921;49.368;11.068;2023-01-28T00:23:55;98190.09;;;0.82;88.86
3812;BME280;1921;49.368;11.068;2023-01-28T00:26:23;98192.75;;;0.80;88.70
3812;BME280;1921;49.368;11.068;2023-01-28T00:28:50;98201.72;;;1.13;87.79
3812;BME280;1921;49.368;11.068;2023-01-28T00:31:24;98228.94;;;1.03;88.46
3812;BME280;1921;49.368;11.068;2023-01-28T00:33:52;98200.38;;;0.69;90.19
3812;BME280;1921;49.368;11.068;2023-01-28T00:36:21;98223.38;;;0.84;90.91
3812;BME280;1921;49.368;11.068;2023-01-28T00:38:56;98200.38;;;0.82;89.77
3812;BME280;1921;49.368;11.068;2023-01-28T00:41:27;98259.56;;;1.06;90.24
3812;BME280;1921;49.368;11.068;2023-01-28T00:43:53;98203.66;;;0.84;89.23
3812;BME280;1921;49.368;11.068;2023-01-28T00:46:21;98202.72;;;0.72;90.62
3812;BME280;1921;49.368;11.068;2023-01-28T00:48:48;98202.09;;;0.56;91.60
3812;BME280;1921;49.368;11.068;2023-01-28T00:51:16;98179.31;;;0.64;90.67
3812;BME280;1921;49.368;11.068;2023-01-28T00:53:43;98194.59;;;0.78;89.81
3812;BME280;1921;49.368;11.068;2023-01-28T00:56:15;98242.84;;;0.73;92.22
3812;BME280;1921;49.368;11.068;2023-01-28T00:58:41;98168.09;;;0.40;91.33
3812;BME280;1921;49.368;11.068;2023-01-28T01:01:17;98187.66;;;0.28;93.73
3812;BME280;1921;49.368;11.068;2023-01-28T01:03:44;98239.34;;;0.74;93.23
3812;BME280;1921;49.368;11.068;2023-01-28T01:06:11;98251.34;;;0.61;93.90
3812;BME280;1921;49.368;11.068;2023-01-28T01:08:38;98239.75;;;0.68;94.03
3812;BME280;1921;49.368;11.068;2023-01-28T01:11:14;98155.66;;;-0.06;93.92
3812;BME280;1921;49.368;11.068;2023-01-28T01:13:40;98219.84;;;0.19;96.28
3812;BME280;1921;49.368;11.068;2023-01-28T01:16:12;98275.25;;;0.62;95.46
3812;BME280;1921;49.368;11.068;2023-01-28T01:18:39;98218.56;;;0.12;95.82
3812;BME280;1921;49.368;11.068;2023-01-28T01:21:14;98209.44;;;0.08;95.96
3812;BME280;1921;49.368;11.068;2023-01-28T01:23:42;98274.06;;;0.40;96.45
3812;BME280;1921;49.368;11.068;2023-01-28T01:26:08;98269.69;;;0.55;95.95
3812;BME280;1921;49.368;11.068;2023-01-28T01:28:35;98251.16;;;0.37;96.01
3812;BME280;1921;49.368;11.068;2023-01-28T01:31:04;98223.50;;;0.15;96.44
3812;BME280;1921;49.368;11.068;2023-01-28T01:33:30;98212.19;;;0.32;95.93
3812;BME280;1921;49.368;11.068;2023-01-28T01:35:57;98207.44;;;0.26;95.39
3812;BME280;1921;49.368;11.068;2023-01-28T01:38:24;98172.53;;;0.23;95.59
3812;BME280;1921;49.368;11.068;2023-01-28T01:40:50;98240.44;;;0.45;94.88
3812;BME280;1921;49.368;11.068;2023-01-28T01:43:18;98233.78;;;0.55;95.42
3812;BME280;1921;49.368;11.068;2023-01-28T01:45:49;98204.31;;;0.48;95.09
3812;BME280;1921;49.368;11.068;2023-01-28T01:48:23;98227.44;;;0.73;93.70
3812;BME280;1921;49.368;11.068;2023-01-28T01:50:56;98260.72;;;0.62;95.32
3812;BME280;1921;49.368;11.068;2023-01-28T01:53:25;98273.38;;;0.78;95.05
3812;BME280;1921;49.368;11.068;2023-01-28T01:55:56;98257.78;;;0.94;94.40
3812;BME280;1921;49.368;11.068;2023-01-28T01:58:30;98262.81;;;0.83;93.96
3812;BME280;1921;49.368;11.068;2023-01-28T02:00:58;98243.00;;;0.45;96.40
3812;BME280;1921;49.368;11.068;2023-01-28T02:03:32;98274.66;;;0.58;96.87
3812;BME280;1921;49.368;11.068;2023-01-28T02:06:02;98261.09;;;0.56;96.33
3812;BME280;1921;49.368;11.068;2023-01-28T02:08:28;98258.47;;;0.43;96.88
3812;BME280;1921;49.368;11.068;2023-01-28T02:10:59;98251.81;;;0.41;97.38
3812;BME280;1921;49.368;11.068;2023-01-28T02:13:29;98259.13;;;0.47;97.30
3812;BME280;1921;49.368;11.068;2023-01-28T02:15:58;98288.44;;;0.70;97.35
3812;BME280;1921;49.368;11.068;2023-01-28T02:18:25;98261.41;;;0.51;96.91
3812;BME280;1921;49.368;11.068;2023-01-28T02:23:42;98274.13;;;0.53;97.46
3812;BME280;1921;49.368;11.068;2023-01-28T02:29:23;98278.97;;;0.58;98.11
3812;BME280;1921;49.368;11.068;2023-01-28T02:31:54;98286.72;;;0.83;96.72
3812;BME280;1921;49.368;11.068;2023-01-28T02:37:26;98301.31;;;0.83;97.47
3812;BME280;1921;49.368;11.068;2023-01-28T02:42:43;98260.00;;;0.33;98.43
3812;BME280;1921;49.368;11.068;2023-01-28T02:45:34;98281.72;;;0.54;98.51
3812;BME280;1921;49.368;11.068;2023-01-28T02:48:21;98303.06;;;0.55;98.92
3812;BME280;1921;49.368;11.068;2023-01-28T02:51:14;98268.81;;;0.56;97.73
3812;BME280;1921;49.368;11.068;2023-01-28T02:53:53;98208.28;;;0.26;97.75
3812;BME280;1921;49.368;11.068;2023-01-28T02:56:37;98315.34;;;0.77;98.02
3812;BME280;1921;49.368;11.068;2023-01-28T03:02:22;98230.56;;;0.12;99.18
3812;BME280;1921;49.368;11.068;2023-01-28T03:05:13;98302.09;;;0.43;99.69
3812;BME280;1921;49.368;11.068;2023-01-28T03:07:40;98289.75;;;0.36;99.66
3812;BME280;1921;49.368;11.068;2023-01-28T03:10:11;98269.00;;;0.26;99.88
3812;BME280;1921;49.368;11.068;2023-01-28T03:12:41;98280.03;;;0.41;98.83
3812;BME280;1921;49.368;11.068;2023-01-28T03:15:46;98317.00;;;0.78;98.54
3812;BME280;1921;49.368;11.068;2023-01-28T03:18:48;98283.06;;;0.60;98.35
3812;BME280;1921;49.368;11.068;2023-01-28T03:21:41;98241.63;;;0.26;97.86
3812;BME280;1921;49.368;11.068;2023-01-28T03:24:32;98315.56;;;0.87;97.68
3812;BME280;1921;49.368;11.068;2023-01-28T03:27:28;98321.50;;;1.14;96.91
3812;BME280;1921;49.368;11.068;2023-01-28T03:30:30;98286.66;;;1.23;95.11
3812;BME280;1921;49.368;11.068;2023-01-28T03:33:18;98267.16;;;1.33;93.63
3812;BME280;1921;49.368;11.068;2023-01-28T03:36:03;98301.06;;;1.64;92.20
3812;BME280;1921;49.368;11.068;2023-01-28T03:38:51;98315.97;;;1.71;92.03
3812;BME280;1921;49.368;11.068;2023-01-28T03:41:22;98296.94;;;1.48;91.89
3812;BME280;1921;49.368;11.068;2023-01-28T03:43:49;98320.59;;;1.41;91.55
3812;BME280;1921;49.368;11.068;2023-01-28T03:46:15;98286.03;;;0.94;93.91
3812;BME280;1921;49.368;11.068;2023-01-28T03:48:41;98338.25;;;1.07;94.41
3812;BME280;1921;49.368;11.068;2023-01-28T03:51:07;98286.31;;;0.76;95.29
3812;BME280;1921;49.368;11.068;2023-01-28T03:53:33;98283.75;;;0.89;94.45
3812;BME280;1921;49.368;11.068;2023-01-28T03:55:58;98324.47;;;1.08;95.32
3812;BME280;1921;49.368;11.068;2023-01-28T03:58:25;98324.34;;;0.97;95.41
3812;BME280;1921;49.368;11.068;2023-01-28T04:01:11;98279.28;;;0.66;95.70
3812;BME280;1921;49.368;11.068;2023-01-28T04:03:37;98242.59;;;0.38;95.92
3812;BME280;1921;49.368;11.068;2023-01-28T04:06:06;98272.03;;;0.85;94.70
3812;BME280;1921;49.368;11.068;2023-01-28T04:08:33;98330.25;;;1.24;94.20
3812;BME280;1921;49.368;11.068;2023-01-28T04:10:58;98253.47;;;0.82;94.06
3812;BME280;1921;49.368;11.068;2023-01-28T04:13:40;98284.28;;;0.94;93.64
3812;BME280;1921;49.368;11.068;2023-01-28T04:16:07;98348.94;;;1.14;94.11
3812;BME280;1921;49.368;11.068;2023-01-28T04:18:33;98306.06;;;1.01;94.29
3812;BME280;1921;49.368;11.068;2023-01-28T04:20:59;98293.53;;;1.10;93.63
3812;BME280;1921;49.368;11.068;2023-01-28T04:23:25;98297.34;;;1.17;93.06
3812;BME280;1921;49.368;11.068;2023-01-28T04:25:51;98353.28;;;1.39;93.08
3812;BME280;1921;49.368;11.068;2023-01-28T04:28:17;98322.75;;;1.21;93.67
3812;BME280;1921;49.368;11.068;2023-01-28T04:30:43;98295.28;;;1.09;93.40
3812;BME280;1921;49.368;11.068;2023-01-28T04:33:08;98309.78;;;1.10;93.37
3812;BME280;1921;49.368;11.068;2023-01-28T04:35:34;98369.81;;;1.34;93.95
3812;BME280;1921;49.368;11.068;2023-01-28T04:38:00;98362.28;;;1.06;94.05
3812;BME280;1921;49.368;11.068;2023-01-28T04:40:26;98328.31;;;0.75;95.94
3812;BME280;1921;49.368;11.068;2023-01-28T04:42:53;98365.09;;;0.89;97.06
3812;BME280;1921;49.368;11.068;2023-01-28T04:45:20;98329.78;;;0.65;97.43
3812;BME280;1921;49.368;11.068;2023-01-28T04:47:45;98333.03;;;0.54;99.19
3812;BME280;1921;49.368;11.068;2023-01-28T04:50:11;98315.25;;;0.24;100.00
3812;BME280;1921;49.368;11.068;2023-01-28T04:52:37;98306.28;;;0.17;100.00
3812;BME280;1921;49.368;11.068;2023-01-28T04:55:04;98349.13;;;0.44;100.00
3812;BME280;1921;49.368;11.068;2023-01-28T04:57:30;98286.53;;;0.05;100.00
3812;BME280;1921;49.368;11.068;2023-01-28T04:59:56;98291.16;;;-0.29;100.00
3812;BME280;1921;49.368;11.068;2023-01-28T05:02:22;98374.91;;;0.14;100.00
3812;BME280;1921;49.368;11.068;2023-01-28T05:04:48;98376.91;;;0.23;100.00
3812;BME280;1921;49.368;11.068;2023-01-28T05:07:13;98328.22;;;-0.06;100.00
3812;BME280;1921;49.368;11.068;2023-01-28T05:09:39;98310.09;;;-0.17;100.00
3812;BME280;1921;49.368;11.068;2023-01-28T05:12:05;98309.16;;;-0.02;100.00
3812;BME280;1921;49.368;11.068;2023-01-28T05:14:31;98283.06;;;-0.08;100.00
3812;BME280;1921;49.368;11.068;2023-01-28T05:16:57;98377.47;;;0.55;100.00
3812;BME280;1921;49.368;11.068;2023-01-28T05:19:22;98346.94;;;0.38;100.00
3812;BME280;1921;49.368;11.068;2023-01-28T05:21:48;98330.13;;;0.19;100.00
3812;BME280;1921;49.368;11.068;2023-01-28T05:24:14;98317.63;;;0.28;100.00
3812;BME280;1921;49.368;11.068;2023-01-28T05:26:40;98315.03;;;0.42;100.00
3812;BME280;1921;49.368;11.068;2023-01-28T05:29:06;98342.97;;;0.46;100.00
3812;BME280;1921;49.368;11.068;2023-01-28T05:31:32;98349.25;;;0.55;100.00
3812;BME280;1921;49.368;11.068;2023-01-28T05:33:58;98318.47;;;0.28;100.00
3812;BME280;1921;49.368;11.068;2023-01-28T05:36:23;98320.75;;;0.33;100.00
3812;BME280;1921;49.368;11.068;2023-01-28T05:38:49;98220.72;;;-0.50;100.00
3812;BME280;1921;49.368;11.068;2023-01-28T05:41:15;98321.44;;;0.08;100.00
3812;BME280;1921;49.368;11.068;2023-01-28T05:43:41;98269.75;;;-0.28;100.00
3812;BME280;1921;49.368;11.068;2023-01-28T05:46:06;98306.28;;;0.17;100.00
3812;BME280;1921;49.368;11.068;2023-01-28T05:48:32;98370.81;;;0.52;100.00
3812;BME280;1921;49.368;11.068;2023-01-28T05:50:58;98358.63;;;0.56;100.00
3812;BME280;1921;49.368;11.068;2023-01-28T05:53:24;98338.00;;;0.43;100.00
3812;BME280;1921;49.368;11.068;2023-01-28T05:55:51;98347.44;;;0.57;100.00
3812;BME280;1921;49.368;11.068;2023-01-28T05:58:20;98355.91;;;0.45;100.00
3812;BME280;1921;49.368;11.068;2023-01-28T06:00:46;98330.41;;;0.42;100.00
3812;BME280;1921;49.368;11.068;2023-01-28T06:03:12;98329.97;;;0.35;100.00
3812;BME280;1921;49.368;11.068;2023-01-28T06:05:38;98339.34;;;0.63;100.00
3812;BME280;1921;49.368;11.068;2023-01-28T06:08:04;98319.59;;;0.51;100.00
3812;BME280;1921;49.368;11.068;2023-01-28T06:10:30;98307.97;;;0.45;100.00
3812;BME280;1921;49.368;11.068;2023-01-28T06:12:56;98327.13;;;0.67;100.00
3812;BME280;1921;49.368;11.068;2023-01-28T06:15:22;98340.34;;;0.61;100.00
3812;BME280;1921;49.368;11.068;2023-01-28T06:17:48;98365.09;;;0.89;100.00
3812;BME280;1921;49.368;11.068;2023-01-28T06:20:14;98350.41;;;0.91;100.00
3812;BME280;1921;49.368;11.068;2023-01-28T06:22:41;98363.06;;;0.94;100.00
3812;BME280;1921;49.368;11.068;2023-01-28T06:25:08;98390.63;;;1.17;100.00
3812;BME280;1921;49.368;11.068;2023-01-28T06:27:34;98375.41;;;1.01;99.92
3812;BME280;1921;49.368;11.068;2023-01-28T06:30:00;98370.22;;;0.89;100.00
3812;BME280;1921;49.368;11.068;2023-01-28T06:32:27;98371.81;;;1.04;100.00
3812;BME280;1921;49.368;11.068;2023-01-28T06:34:52;98366.09;;;1.13;98.79
3812;BME280;1921;49.368;11.068;2023-01-28T06:37:19;98391.47;;;1.18;99.31
3812;BME280;1921;49.368;11.068;2023-01-28T06:39:44;98338.78;;;0.85;99.16
3812;BME280;1921;49.368;11.068;2023-01-28T06:42:10;98422.56;;;1.53;98.59
3812;BME280;1921;49.368;11.068;2023-01-28T06:44:36;98397.56;;;1.42;98.34
3812;BME280;1921;49.368;11.068;2023-01-28T06:47:02;98388.44;;;1.38;97.50
3812;BME280;1921;49.368;11.068;2023-01-28T06:49:27;98387.38;;;1.28;96.88
3812;BME280;1921;49.368;11.068;2023-01-28T06:51:53;98387.78;;;1.22;96.85
3812;BME280;1921;49.368;11.068;2023-01-28T06:54:19;98403.09;;;1.23;97.32
3812;BME280;1921;49.368;11.068;2023-01-28T06:56:45;98387.56;;;1.12;97.56
3812;BME280;1921;49.368;11.068;2023-01-28T06:59:11;98389.06;;;1.02;97.99
3812;BME280;1921;49.368;11.068;2023-01-28T07:01:37;98385.16;;;0.96;97.82
3812;BME280;1921;49.368;11.068;2023-01-28T07:04:03;98402.38;;;1.21;97.58
3812;BME280;1921;49.368;11.068;2023-01-28T07:06:29;98360.56;;;0.92;97.22
3812;BME280;1921;49.368;11.068;2023-01-28T07:08:54;98415.44;;;1.18;96.89
3812;BME280;1921;49.368;11.068;2023-01-28T07:11:20;98433.16;;;1.48;96.42
3812;BME280;1921;49.368;11.068;2023-01-28T07:13:46;98403.84;;;1.38;95.96
3812;BME280;1921;49.368;11.068;2023-01-28T07:16:12;98452.44;;;1.68;95.80
3812;BME280;1921;49.368;11.068;2023-01-28T07:18:38;98433.28;;;1.72;95.87
3812;BME280;1921;49.368;11.068;2023-01-28T07:21:04;98425.06;;;1.80;95.18
3812;BME280;1921;49.368;11.068;2023-01-28T07:23:30;98412.53;;;1.75;94.47
3812;BME280;1921;49.368;11.068;2023-01-28T07:26:01;98376.59;;;1.35;93.55
3812;BME280;1921;49.368;11.068;2023-01-28T07:28:27;98405.75;;;1.74;93.66
3812;BME280;1921;49.368;11.068;2023-01-28T07:30:53;98399.78;;;1.86;93.39
3812;BME280;1921;49.368;11.068;2023-01-28T07:33:19;98424.16;;;2.06;93.33
3812;BME280;1921;49.368;11.068;2023-01-28T07:35:45;98438.78;;;2.19;92.53
3812;BME280;1921;49.368;11.068;2023-01-28T07:38:11;98459.13;;;1.96;91.22
3812;BME280;1921;49.368;11.068;2023-01-28T07:40:38;98424.56;;;1.87;92.46
3812;BME280;1921;49.368;11.068;2023-01-28T07:43:04;98398.13;;;1.85;91.46
3812;BME280;1921;49.368;11.068;2023-01-28T07:45:32;98455.75;;;1.96;91.81
3812;BME280;1921;49.368;11.068;2023-01-28T07:48:04;98356.13;;;1.21;92.43
3812;BME280;1921;49.368;11.068;2023-01-28T07:50:33;98403.13;;;1.49;91.51
3812;BME280;1921;49.368;11.068;2023-01-28T07:53:06;98383.84;;;1.16;92.57
3812;BME280;1921;49.368;11.068;2023-01-28T07:55:32;98408.69;;;1.03;95.47
3812;BME280;1921;49.368;11.068;2023-01-28T07:58:00;98459.56;;;1.38;95.99
3812;BME280;1921;49.368;11.068;2023-01-28T08:00:30;98430.47;;;1.37;94.53
3812;BME280;1921;49.368;11.068;2023-01-28T08:03:01;98432.72;;;1.02;97.67
3812;BME280;1921;49.368;11.068;2023-01-28T08:05:45;98418.25;;;0.60;100.00
3812;BME280;1921;49.368;11.068;2023-01-28T08:08:11;98431.56;;;0.23;100.00
3812;BME280;1921;49.368;11.068;2023-01-28T08:10:38;98436.91;;;0.20;100.00
3812;BME280;1921;49.368;11.068;2023-01-28T08:13:05;98498.00;;;0.57;100.00
3812;BME280;1921;49.368;11.068;2023-01-28T08:15:32;98397.09;;;0.01;100.00
3812;BME280;1921;49.368;11.068;2023-01-28T08:17:59;98421.97;;;0.27;100.00
3812;BME280;1921;49.368;11.068;2023-01-28T08:20:27;98453.69;;;0.67;100.00
3812;BME280;1921;49.368;11.068;2023-01-28T08:23:06;98443.03;;;0.46;100.00
3812;BME280;1921;49.368;11.068;2023-01-28T08:25:33;98435.22;;;0.62;100.00
3812;BME280;1921;49.368;11.068;2023-01-28T08:28:00;98442.84;;;0.35;100.00
3812;BME280;1921;49.368;11.068;2023-01-28T08:30:26;98464.44;;;0.60;100.00
3812;BME280;1921;49.368;11.068;2023-01-28T08:32:55;98501.03;;;1.04;100.00
3812;BME280;1921;49.368;11.068;2023-01-28T08:35:23;98460.38;;;0.84;100.00
3812;BME280;1921;49.368;11.068;2023-01-28T08:37:49;98490.69;;;1.06;100.00
3812;BME280;1921;49.368;11.068;2023-01-28T08:40:15;98458.44;;;0.88;100.00
3812;BME280;1921;49.368;11.068;2023-01-28T08:42:49;98452.56;;;1.00;100.00
3812;BME280;1921;49.368;11.068;2023-01-28T08:45:16;98475.06;;;0.82;100.00
3812;BME280;1921;49.368;11.068;2023-01-28T08:47:49;98353.03;;;-0.06;100.00
3812;BME280;1921;49.368;11.068;2023-01-28T08:50:17;98493.03;;;0.82;100.00
3812;BME280;1921;49.368;11.068;2023-01-28T08:52:43;98477.75;;;1.07;100.00
3812;BME280;1921;49.368;11.068;2023-01-28T08:55:10;98495.06;;;1.58;100.00
3812;BME280;1921;49.368;11.068;2023-01-28T08:57:36;98445.44;;;0.76;100.00
3812;BME280;1921;49.368;11.068;2023-01-28T09:00:04;98450.81;;;0.45;100.00
3812;BME280;1921;49.368;11.068;2023-01-28T09:02:30;98476.66;;;0.56;100.00
3812;BME280;1921;49.368;11.068;2023-01-28T09:04:55;98413.91;;;0.05;100.00
3812;BME280;1921;49.368;11.068;2023-01-28T09:07:21;98507.53;;;0.69;100.00
3812;BME280;1921;49.368;11.068;2023-01-28T09:09:47;98494.19;;;0.91;100.00
3812;BME280;1921;49.368;11.068;2023-01-28T09:12:12;98489.72;;;0.80;100.00
3812;BME280;1921;49.368;11.068;2023-01-28T09:14:38;98471.34;;;0.45;100.00
3812;BME280;1921;49.368;11.068;2023-01-28T09:17:04;98516.19;;;0.80;100.00
3812;BME280;1921;49.368;11.068;2023-01-28T09:19:30;98460.78;;;0.49;100.00
3812;BME280;1921;49.368;11.068;2023-01-28T09:21:56;98449.78;;;0.62;99.59
3812;BME280;1921;49.368;11.068;2023-01-28T09:24:21;98488.97;;;0.92;99.98
3812;BME280;1921;49.368;11.068;2023-01-28T09:26:48;98513.97;;;1.03;99.74
3812;BME280;1921;49.368;11.068;2023-01-28T09:29:14;98503.53;;;0.92;99.58
3812;BME280;1921;49.368;11.068;2023-01-28T09:31:41;98474.47;;;0.91;98.30
3812;BME280;1921;49.368;11.068;2023-01-28T09:34:08;98490.84;;;1.44;95.16
3812;BME280;1921;49.368;11.068;2023-01-28T09:36:34;98477.97;;;1.44;94.74
3812;BME280;1921;49.368;11.068;2023-01-28T09:39:01;98469.59;;;1.28;93.55
3812;BME280;1921;49.368;11.068;2023-01-28T09:47:26;98490.38;;;0.69;95.04
3812;BME280;1921;49.368;11.068;2023-01-28T09:49:56;98481.50;;;0.75;94.65
3812;BME280;1921;49.368;11.068;2023-01-28T09:52:24;98505.34;;;1.18;94.25
3812;BME280;1921;49.368;11.068;2023-01-28T09:55:06;98536.81;;;1.88;90.87
3812;BME280;1921;49.368;11.068;2023-01-28T09:57:46;98544.06;;;1.69;90.13
3812;BME280;1921;49.368;11.068;2023-01-28T10:00:23;98482.63;;;0.98;92.30
3812;BME280;1921;49.368;11.068;2023-01-28T10:05:54;98511.72;;;1.25;91.60
3812;BME280;1921;49.368;11.068;2023-01-28T10:11:57;98502.31;;;1.39;91.72
3812;BME280;1921;49.368;11.068;2023-01-28T10:18:00;98525.50;;;1.24;92.16
3812;BME280;1921;49.368;11.068;2023-01-28T10:20:31;98547.88;;;1.76;92.42
3812;BME280;1921;49.368;11.068;2023-01-28T10:23:06;98542.34;;;1.82;91.44
3812;BME280;1921;49.368;11.068;2023-01-28T10:25:32;98511.47;;;1.43;89.84
3812;BME280;1921;49.368;11.068;2023-01-28T10:28:00;98518.47;;;1.14;91.29
3812;BME280;1921;49.368;11.068;2023-01-28T10:30:31;98461.63;;;0.91;92.16
3812;BME280;1921;49.368;11.068;2023-01-28T10:33:08;98503.66;;;1.17;91.09
3812;BME280;1921;49.368;11.068;2023-01-28T10:35:38;98505.66;;;1.26;90.89
3812;BME280;1921;49.368;11.068;2023-01-28T10:38:11;98464.63;;;0.98;90.87
3812;BME280;1921;49.368;11.068;2023-01-28T10:40:41;98446.47;;;0.60;91.16
3812;BME280;1921;49.368;11.068;2023-01-28T10:43:08;98472.72;;;0.50;92.06
3812;BME280;1921;49.368;11.068;2023-01-28T10:45:45;98503.47;;;0.79;93.24
3812;BME280;1921;49.368;11.068;2023-01-28T10:48:22;98522.59;;;1.02;91.89
3812;BME280;1921;49.368;11.068;2023-01-28T10:51:00;98482.00;;;0.80;91.50
3812;BME280;1921;49.368;11.068;2023-01-28T10:53:42;98523.38;;;1.31;90.48
3812;BME280;1921;49.368;11.068;2023-01-28T10:56:24;98529.94;;;1.08;90.20
3812;BME280;1921;49.368;11.068;2023-01-28T10:59:06;98523.22;;;1.20;89.24
3812;BME280;1921;49.368;11.068;2023-01-28T11:02:30;98544.66;;;1.73;86.78
3812;BME280;1921;49.368;11.068;2023-01-28T11:05:19;98531.88;;;2.11;83.70
3812;BME280;1921;49.368;11.068;2023-01-28T11:07:48;98445.34;;;1.84;83.40
3812;BME280;1921;49.368;11.068;2023-01-28T11:10:34;98510.69;;;1.95;83.05
3812;BME280;1921;49.368;11.068;2023-01-28T11:13:13;98516.00;;;1.79;84.38
3812;BME280;1921;49.368;11.068;2023-01-28T11:18:21;98538.91;;;1.15;87.08
3812;BME280;1921;49.368;11.068;2023-01-28T11:20:54;98509.06;;;0.86;88.18
3812;BME280;1921;49.368;11.068;2023-01-28T11:23:26;98469.00;;;0.83;88.24
3812;BME280;1921;49.368;11.068;2023-01-28T11:26:21;98515.72;;;1.02;88.49
3812;BME280;1921;49.368;11.068;2023-01-28T11:28:48;98502.97;;;1.01;87.63
3812;BME280;1921;49.368;11.068;2023-01-28T11:31:16;98529.00;;;1.09;87.10
3812;BME280;1921;49.368;11.068;2023-01-28T11:33:54;98441.69;;;0.68;86.32
3812;BME280;1921;49.368;11.068;2023-01-28T11:36:27;98482.31;;;0.75;86.96
3812;BME280;1921;49.368;11.068;2023-01-28T11:39:00;98497.41;;;0.94;86.41
3812;BME280;1921;49.368;11.068;2023-01-28T11:41:36;98465.25;;;0.74;86.75
3812;BME280;1921;49.368;11.068;2023-01-28T11:44:25;98544.94;;;1.55;86.09
3812;BME280;1921;49.368;11.068;2023-01-28T11:49:48;98545.47;;;1.60;85.91
3812;BME280;1921;49.368;11.068;2023-01-28T11:53:34;98542.16;;;1.58;83.03
3812;BME280;1921;49.368;11.068;2023-01-28T11:56:12;98467.09;;;1.14;83.89
3812;BME280;1921;49.368;11.068;2023-01-28T12:11:02;98505.41;;;1.83;82.06
3812;BME280;1921;49.368;11.068;2023-01-28T12:23:33;98467.47;;;1.87;77.05
3812;BME280;1921;49.368;11.068;2023-01-28T12:26:36;98531.47;;;2.30;77.38
3812;BME280;1921;49.368;11.068;2023-01-28T12:29:37;98443.69;;;1.18;78.98
3812;BME280;1921;49.368;11.068;2023-01-28T12:35:06;98485.84;;;1.28;79.91
3812;BME280;1921;49.368;11.068;2023-01-28T12:42:58;98525.28;;;1.54;78.78
3812;BME280;1921;49.368;11.068;2023-01-28T12:45:44;98490.72;;;1.46;77.46
3812;BME280;1921;49.368;11.068;2023-01-28T12:48:28;98526.34;;;1.65;79.74
3812;BME280;1921;49.368;11.068;2023-01-28T12:51:07;98527.13;;;2.05;78.52
3812;BME280;1921;49.368;11.068;2023-01-28T12:54:10;98450.66;;;1.16;78.30
3812;BME280;1921;49.368;11.068;2023-01-28T12:56:51;98454.63;;;1.07;78.90
3812;BME280;1921;49.368;11.068;2023-01-28T12:59:47;98476.88;;;1.21;79.08
3812;BME280;1921;49.368;11.068;2023-01-28T13:02:30;98476.88;;;0.94;78.39
3812;BME280;1921;49.368;11.068;2023-01-28T13:05:14;98431.41;;;0.82;79.31
3812;BME280;1921;49.368;11.068;2023-01-28T13:08:14;98459.00;;;0.78;80.56
3812;BME280;1921;49.368;11.068;2023-01-28T13:10:44;98483.31;;;1.14;79.14
3812;BME280;1921;49.368;11.068;2023-01-28T13:13:30;98507.00;;;1.05;79.70
3812;BME280;1921;49.368;11.068;2023-01-28T13:15:57;98499.66;;;0.99;81.43
3812;BME280;1921;49.368;11.068;2023-01-28T13:21:05;98480.47;;;1.19;79.78
3812;BME280;1921;49.368;11.068;2023-01-28T13:23:49;98520.53;;;1.21;81.13
3812;BME280;1921;49.368;11.068;2023-01-28T13:28:49;98493.47;;;1.43;79.53
3812;BME280;1921;49.368;11.068;2023-01-28T13:31:18;98457.50;;;1.43;79.18
3812;BME280;1921;49.368;11.068;2023-01-28T13:39:20;98470.66;;;1.91;74.75
3812;BME280;1921;49.368;11.068;2023-01-28T13:41:53;98357.47;;;0.33;78.30
3812;BME280;1921;49.368;11.068;2023-01-28T13:47:35;98545.69;;;1.16;81.01
3812;BME280;1921;49.368;11.068;2023-01-28T13:50:04;98489.97;;;0.90;80.13
3812;BME280;1921;49.368;11.068;2023-01-28T13:52:49;98475.16;;;0.66;80.69
3812;BME280;1921;49.368;11.068;2023-01-28T13:55:26;98481.47;;;0.89;80.16
3812;BME280;1921;49.368;11.068;2023-01-28T14:07:35;98543.38;;;1.26;81.24
3812;BME280;1921;49.368;11.068;2023-01-28T14:10:32;98516.66;;;1.55;77.42
3812;BME280;1921;49.368;11.068;2023-01-28T14:13:32;98551.06;;;1.80;77.34
3812;BME280;1921;49.368;11.068;2023-01-28T14:18:48;98524.06;;;2.00;73.81
3812;BME280;1921;49.368;11.068;2023-01-28T14:21:21;98457.09;;;2.14;72.18
3812;BME280;1921;49.368;11.068;2023-01-28T14:23:50;98504.06;;;1.38;74.82
3812;BME280;1921;49.368;11.068;2023-01-28T14:32:20;98514.97;;;1.15;78.03
3812;BME280;1921;49.368;11.068;2023-01-28T14:34:47;98550.22;;;1.40;76.50
3812;BME280;1921;49.368;11.068;2023-01-28T14:37:20;98504.63;;;1.29;76.12
3812;BME280;1921;49.368;11.068;2023-01-28T14:39:52;98521.28;;;1.50;75.55
3812;BME280;1921;49.368;11.068;2023-01-28T14:42:23;98526.28;;;1.39;75.43
3812;BME280;1921;49.368;11.068;2023-01-28T14:48:23;98562.78;;;1.03;77.19
3812;BME280;1921;49.368;11.068;2023-01-28T14:57:01;98582.47;;;1.58;77.51
3812;BME280;1921;49.368;11.068;2023-01-28T14:59:45;98564.97;;;1.50;76.66
3812;BME280;1921;49.368;11.068;2023-01-28T15:02:24;98510.31;;;1.07;76.17
3812;BME280;1921;49.368;11.068;2023-01-28T15:04:51;98519.13;;;1.03;77.60
3812;BME280;1921;49.368;11.068;2023-01-28T15:07:26;98535.66;;;1.53;75.64
3812;BME280;1921;49.368;11.068;2023-01-28T15:13:12;98515.75;;;1.56;74.59
3812;BME280;1921;49.368;11.068;2023-01-28T15:15:40;98507.06;;;1.18;74.04
3812;BME280;1921;49.368;11.068;2023-01-28T15:18:20;98548.69;;;1.77;74.11
3812;BME280;1921;49.368;11.068;2023-01-28T15:20:54;98536.31;;;1.56;72.56
3812;BME280;1921;49.368;11.068;2023-01-28T15:23:30;98609.78;;;1.73;74.04
3812;BME280;1921;49.368;11.068;2023-01-28T15:25:57;98579.41;;;1.39;74.02
3812;BME280;1921;49.368;11.068;2023-01-28T15:28:30;98554.47;;;1.26;75.79
3812;BME280;1921;49.368;11.068;2023-01-28T15:30:57;98582.91;;;1.38;75.30
3812;BME280;1921;49.368;11.068;2023-01-28T15:33:24;98540.13;;;0.95;76.30
3812;BME280;1921;49.368;11.068;2023-01-28T15:35:57;98589.38;;;1.02;77.58